createdAt,value
2022-10-18T00:00:34.360Z,102134.56
2022-10-18T00:01:36.829Z,102134.56
2022-10-18T00:02:38.395Z,102138.22
2022-10-18T00:04:47.733Z,102136.53
2022-10-18T00:05:51.564Z,102130.34
2022-10-18T00:06:53.097Z,102131.19
2022-10-18T00:07:55.563Z,102131.03
2022-10-18T00:08:58.463Z,102133.72
2022-10-18T00:10:00.964Z,102132.88
2022-10-18T00:11:02.589Z,102130.19
2022-10-18T00:12:05.337Z,102132.88
2022-10-18T00:13:06.947Z,102138.22
2022-10-18T00:14:09.608Z,102133.72
2022-10-18T00:15:12.012Z,102126.53
2022-10-18T00:16:16.730Z,102129.22
2022-10-18T00:17:18.274Z,102129.22
2022-10-18T00:18:20.928Z,102131.88
2022-10-18T00:19:25.905Z,102132.75
2022-10-18T00:20:31.341Z,102128.34
2022-10-18T00:21:33.113Z,102130.91
2022-10-18T00:22:36.526Z,102120.19
2022-10-18T00:23:38.442Z,102125.56
2022-10-18T00:24:42.299Z,102121.06
2022-10-18T00:25:43.843Z,102125.56
2022-10-18T00:26:46.401Z,102118.38
2022-10-18T00:27:48.172Z,102118.38
2022-10-18T00:28:53.637Z,102121.91
2022-10-18T00:29:55.245Z,102109.47
2022-10-18T00:30:58.193Z,102120.91
2022-10-18T00:32:00.057Z,102113.97
2022-10-18T00:33:02.559Z,102115.53
2022-10-18T00:34:07.054Z,102111.19
2022-10-18T00:35:10.510Z,102112.84
2022-10-18T00:36:13.327Z,102116.53
2022-10-18T00:37:16.114Z,102119.22
2022-10-18T00:38:17.719Z,102110.16
2022-10-18T00:39:21.961Z,102113.00
2022-10-18T00:40:24.872Z,102112.00
2022-10-18T00:41:29.760Z,102104.97
2022-10-18T00:42:34.472Z,102104.97
2022-10-18T00:43:52.858Z,102108.63
2022-10-18T00:45:12.553Z,102108.63
2022-10-18T00:46:15.015Z,102106.06
2022-10-18T00:47:18.212Z,102106.06
2022-10-18T00:48:21.793Z,102114.94
2022-10-18T00:49:27.735Z,102106.91
2022-10-18T00:50:34.970Z,102111.41
2022-10-18T00:51:41.970Z,102103.38
2022-10-18T00:52:47.833Z,102106.06
2022-10-18T00:53:49.624Z,102103.50
2022-10-18T00:54:53.872Z,102099.00
2022-10-18T00:55:57.502Z,102105.22
2022-10-18T00:57:00.425Z,102097.28
2022-10-18T00:58:03.417Z,102106.06
2022-10-18T00:59:05.983Z,102096.31
2022-10-18T01:00:09.923Z,102095.31
2022-10-18T01:01:17.794Z,102098.84
2022-10-18T01:02:19.679Z,102096.19
2022-10-18T01:03:22.212Z,102096.19
2022-10-18T01:04:23.935Z,102093.50
2022-10-18T01:05:27.052Z,102092.63
2022-10-18T01:06:29.034Z,102093.66
2022-10-18T01:08:03.631Z,102090.81
2022-10-18T01:09:15.058Z,102093.66
2022-10-18T01:10:26.681Z,102083.88
2022-10-18T01:11:43.649Z,102087.53
2022-10-18T01:13:05.745Z,102086.72
2022-10-18T01:14:19.582Z,102083.19
2022-10-18T01:15:27.740Z,102089.41
2022-10-18T01:16:37.411Z,102080.34
2022-10-18T01:17:48.085Z,102080.34
2022-10-18T01:18:55.851Z,102091.09
2022-10-18T01:20:23.197Z,102078.53
2022-10-18T01:21:38.247Z,102079.50
2022-10-18T01:22:44.532Z,102082.19
2022-10-18T01:24:26.731Z,102084.03
2022-10-18T01:25:40.656Z,102082.31
2022-10-18T01:27:11.137Z,102079.75
2022-10-18T01:28:29.166Z,102083.44
2022-10-18T01:29:46.161Z,102080.78
2022-10-18T01:30:58.014Z,102082.59
2022-10-18T01:32:02.506Z,102084.41
2022-10-18T01:33:10.241Z,102076.38
2022-10-18T01:34:16.458Z,102089.78
2022-10-18T01:35:23.940Z,102081.75
2022-10-18T01:36:32.491Z,102084.28
2022-10-18T01:37:35.946Z,102090.50
2022-10-18T01:38:40.520Z,102090.50
2022-10-18T01:39:45.628Z,102086.13
2022-10-18T01:40:51.332Z,102079.91
2022-10-18T01:41:54.588Z,102084.28
2022-10-18T01:42:57.235Z,102092.31
2022-10-18T01:44:01.892Z,102086.13
2022-10-18T01:45:05.337Z,102086.13
2022-10-18T01:46:09.339Z,102087.81
2022-10-18T01:47:13.353Z,102083.31
2022-10-18T01:48:16.378Z,102087.81
2022-10-18T01:49:18.876Z,102086.94
2022-10-18T01:50:29.127Z,102083.31
2022-10-18T01:51:33.440Z,102085.00
2022-10-18T01:52:35.048Z,102089.41
2022-10-18T01:53:37.517Z,102090.22
2022-10-18T01:54:42.897Z,102084.88
2022-10-18T01:55:53.915Z,102087.53
2022-10-18T01:56:59.686Z,102085.72
2022-10-18T01:58:09.361Z,102079.50
2022-10-18T01:59:25.110Z,102085.72
2022-10-18T02:00:36.202Z,102089.25
2022-10-18T02:01:51.804Z,102084.88
2022-10-18T02:02:59.188Z,102083.19
2022-10-18T02:04:12.444Z,102088.53
2022-10-18T02:05:23.724Z,102088.53
2022-10-18T02:06:32.147Z,102087.69
2022-10-18T02:07:38.205Z,102085.97
2022-10-18T02:08:46.533Z,102087.69
2022-10-18T02:09:57.331Z,102085.13
2022-10-18T02:11:02.861Z,102089.63
2022-10-18T02:12:07.204Z,102076.38
2022-10-18T02:13:11.238Z,102078.09
2022-10-18T02:14:17.015Z,102079.06
2022-10-18T02:15:23.436Z,102079.06
2022-10-18T02:16:30.932Z,102078.09
2022-10-18T02:17:33.940Z,102077.22
2022-10-18T02:18:41.168Z,102074.66
2022-10-18T02:19:46.170Z,102079.19
2022-10-18T02:20:50.214Z,102078.34
2022-10-18T02:21:54.869Z,102081.03
2022-10-18T02:22:58.283Z,102076.66
2022-10-18T02:24:02.391Z,102076.66
2022-10-18T02:25:10.639Z,102082.00
2022-10-18T02:26:12.942Z,102082.00
2022-10-18T02:27:15.615Z,102075.66
2022-10-18T02:28:17.365Z,102078.34
2022-10-18T02:29:22.759Z,102080.03
2022-10-18T02:30:30.329Z,102089.78
2022-10-18T02:31:36.990Z,102080.88
2022-10-18T02:32:44.724Z,102082.59
2022-10-18T02:33:54.191Z,102078.34
2022-10-18T02:35:00.651Z,102075.66
2022-10-18T02:36:08.813Z,102085.53
2022-10-18T02:37:11.785Z,102082.94
2022-10-18T02:38:18.287Z,102085.63
2022-10-18T02:39:23.024Z,102077.72
2022-10-18T02:40:26.550Z,102084.91
2022-10-18T02:41:30.472Z,102078.69
2022-10-18T02:42:37.318Z,102085.88
2022-10-18T02:43:38.896Z,102089.53
2022-10-18T02:44:41.437Z,102081.50
2022-10-18T02:45:43.070Z,102097.59
2022-10-18T02:46:46.324Z,102089.53
2022-10-18T02:47:49.250Z,102085.19
2022-10-18T02:48:52.021Z,102079.94
2022-10-18T02:49:53.750Z,102086.16
2022-10-18T02:50:56.248Z,102084.44
2022-10-18T02:51:57.884Z,102088.94
2022-10-18T02:53:00.447Z,102090.66
2022-10-18T02:54:01.990Z,102087.13
2022-10-18T02:55:05.743Z,102089.09
2022-10-18T02:56:07.795Z,102086.41
2022-10-18T02:57:10.318Z,102091.78
2022-10-18T02:58:11.870Z,102092.75
2022-10-18T02:59:14.967Z,102088.25
2022-10-18T03:00:16.775Z,102090.06
2022-10-18T03:01:19.306Z,102084.72
2022-10-18T03:02:20.865Z,102083.84
2022-10-18T03:03:24.990Z,102088.38
2022-10-18T03:05:34.004Z,102095.44
2022-10-18T03:06:36.286Z,102092.75
2022-10-18T03:07:38.804Z,102089.22
2022-10-18T03:08:40.304Z,102093.75
2022-10-18T03:09:42.801Z,102092.91
2022-10-18T03:10:45.088Z,102091.06
2022-10-18T03:11:47.591Z,102097.41
2022-10-18T03:12:49.117Z,102091.19
2022-10-18T03:13:51.696Z,102093.88
2022-10-18T03:14:53.591Z,102090.34
2022-10-18T03:15:56.271Z,102088.50
2022-10-18T03:16:58.792Z,102096.53
2022-10-18T03:18:00.373Z,102090.34
2022-10-18T03:19:04.242Z,102095.69
2022-10-18T03:20:06.747Z,102095.69
2022-10-18T03:21:09.759Z,102091.19
2022-10-18T03:22:11.309Z,102094.72
2022-10-18T03:23:13.851Z,102093.88
2022-10-18T03:24:15.804Z,102090.22
2022-10-18T03:25:18.444Z,102092.03
2022-10-18T03:26:21.441Z,102085.81
2022-10-18T03:27:23.983Z,102092.91
2022-10-18T03:28:25.643Z,102091.06
2022-10-18T03:29:28.804Z,102090.22
2022-10-18T03:30:30.588Z,102092.03
2022-10-18T03:31:33.657Z,102092.91
2022-10-18T03:32:35.642Z,102091.19
2022-10-18T03:33:38.204Z,102093.00
2022-10-18T03:34:41.164Z,102093.88
2022-10-18T03:35:43.661Z,102087.66
2022-10-18T03:36:46.246Z,102090.34
2022-10-18T03:37:47.797Z,102089.47
2022-10-18T03:38:50.253Z,102094.84
2022-10-18T03:39:51.745Z,102091.31
2022-10-18T03:40:54.288Z,102090.34
2022-10-18T03:41:55.854Z,102090.34
2022-10-18T03:42:58.371Z,102091.19
2022-10-18T03:43:59.885Z,102096.53
2022-10-18T03:45:02.553Z,102095.69
2022-10-18T03:46:04.209Z,102093.00
2022-10-18T03:47:10.510Z,102090.34
2022-10-18T03:48:12.205Z,102086.94
2022-10-18T03:49:14.855Z,102092.31
2022-10-18T03:50:17.936Z,102090.59
2022-10-18T03:51:20.469Z,102085.22
2022-10-18T03:52:21.988Z,102090.75
2022-10-18T03:53:24.513Z,102087.22
2022-10-18T03:54:26.095Z,102089.88
2022-10-18T03:55:28.615Z,102092.56
2022-10-18T03:56:30.184Z,102087.22
2022-10-18T03:57:32.732Z,102089.88
2022-10-18T03:59:41.769Z,102095.25
2022-10-18T04:00:43.407Z,102093.53
2022-10-18T04:01:46.040Z,102089.16
2022-10-18T04:02:50.793Z,102094.38
2022-10-18T04:03:55.924Z,102091.72
2022-10-18T04:04:58.696Z,102090.84
2022-10-18T04:06:03.558Z,102085.50
2022-10-18T04:07:05.112Z,102085.50
2022-10-18T04:08:07.602Z,102083.78
2022-10-18T04:09:10.415Z,102091.81
2022-10-18T04:10:13.100Z,102084.63
2022-10-18T04:11:15.097Z,102083.78
2022-10-18T04:12:17.575Z,102087.22
2022-10-18T04:13:19.173Z,102087.31
2022-10-18T04:14:22.004Z,102092.56
2022-10-18T04:15:23.585Z,102093.41
2022-10-18T04:16:26.243Z,102096.09
2022-10-18T04:17:27.857Z,102097.94
2022-10-18T04:18:30.429Z,102097.94
2022-10-18T04:19:31.945Z,102093.41
2022-10-18T04:20:34.518Z,102095.25
2022-10-18T04:21:37.419Z,102102.28
2022-10-18T04:22:40.148Z,102096.94
2022-10-18T04:23:41.733Z,102099.59
2022-10-18T04:24:44.262Z,102095.94
2022-10-18T04:25:45.824Z,102090.75
2022-10-18T04:26:48.393Z,102099.59
2022-10-18T04:27:49.952Z,102087.22
2022-10-18T04:28:52.501Z,102103.28
2022-10-18T04:29:54.066Z,102096.22
2022-10-18T04:30:56.528Z,102096.22
2022-10-18T04:31:58.068Z,102101.56
2022-10-18T04:33:00.639Z,102094.50
2022-10-18T04:34:02.726Z,102097.06
2022-10-18T04:35:06.790Z,102095.38
2022-10-18T04:36:08.517Z,102100.72
2022-10-18T04:37:12.372Z,102099.88
2022-10-18T04:38:14.690Z,102101.56
2022-10-18T04:39:17.419Z,102102.53
2022-10-18T04:40:19.894Z,102103.41
2022-10-18T04:41:22.434Z,102094.50
2022-10-18T04:42:24.481Z,102098.19
2022-10-18T04:43:26.987Z,102100.72
2022-10-18T04:44:31.256Z,102099.88
2022-10-18T04:45:33.743Z,102102.53
2022-10-18T04:46:35.369Z,102099.00
2022-10-18T04:47:37.895Z,102110.59
2022-10-18T04:48:39.484Z,102110.59
2022-10-18T04:49:42.050Z,102107.91
2022-10-18T04:50:43.716Z,102107.06
2022-10-18T04:51:46.259Z,102105.38
2022-10-18T04:53:52.555Z,102106.22
2022-10-18T04:54:54.063Z,102106.22
2022-10-18T04:55:56.573Z,102103.56
2022-10-18T04:56:58.307Z,102111.59
2022-10-18T04:58:00.894Z,102099.88
2022-10-18T04:59:02.699Z,102103.56
2022-10-18T05:00:06.460Z,102108.91
2022-10-18T05:01:10.779Z,102117.66
2022-10-18T05:02:12.422Z,102114.28
2022-10-18T05:03:15.115Z,102121.31
2022-10-18T05:04:16.701Z,102118.78
2022-10-18T05:05:19.263Z,102116.09
2022-10-18T05:06:21.586Z,102105.50
2022-10-18T05:07:24.090Z,102105.50
2022-10-18T05:08:27.132Z,102106.34
2022-10-18T05:09:30.100Z,102102.81
2022-10-18T05:10:31.768Z,102108.31
2022-10-18T05:11:34.300Z,102105.50
2022-10-18T05:12:36.029Z,102102.09
2022-10-18T05:13:38.917Z,102109.28
2022-10-18T05:14:40.521Z,102097.72
2022-10-18T05:15:43.013Z,102093.31
2022-10-18T05:16:44.627Z,102098.69
2022-10-18T05:17:48.011Z,102101.50
2022-10-18T05:18:50.061Z,102102.34
2022-10-18T05:19:52.669Z,102095.28
2022-10-18T05:20:54.207Z,102110.25
2022-10-18T05:21:57.129Z,102103.31
2022-10-18T05:22:59.194Z,102106.00
2022-10-18T05:24:03.266Z,102102.34
2022-10-18T05:25:06.947Z,102092.59
2022-10-18T05:26:09.893Z,102102.47
2022-10-18T05:27:11.610Z,102112.22
2022-10-18T05:28:38.641Z,102106.88
2022-10-18T05:29:37.153Z,102105.31
2022-10-18T05:30:39.177Z,102097.25
2022-10-18T05:31:41.815Z,102108.84
2022-10-18T05:32:43.549Z,102100.91
2022-10-18T05:33:46.131Z,102098.22
2022-10-18T05:34:47.659Z,102100.91
2022-10-18T05:35:50.121Z,102100.19
2022-10-18T05:36:51.852Z,102105.56
2022-10-18T05:37:54.489Z,102099.34
2022-10-18T05:38:58.638Z,102102.88
2022-10-18T05:40:05.847Z,102102.03
2022-10-18T05:41:07.598Z,102102.88
2022-10-18T05:42:10.151Z,102106.53
2022-10-18T05:43:11.713Z,102108.25
2022-10-18T05:44:14.232Z,102117.25
2022-10-18T05:45:15.970Z,102111.03
2022-10-18T05:46:18.529Z,102115.53
2022-10-18T05:47:20.097Z,102115.53
2022-10-18T05:48:22.659Z,102113.84
2022-10-18T05:49:25.205Z,102115.53
2022-10-18T05:50:26.930Z,102118.22
2022-10-18T05:51:29.591Z,102114.69
2022-10-18T05:52:31.458Z,102116.38
2022-10-18T05:53:38.276Z,102120.91
2022-10-18T05:54:40.632Z,102107.50
2022-10-18T05:55:44.509Z,102109.22
2022-10-18T05:56:47.031Z,102112.84
2022-10-18T05:57:49.542Z,102109.31
2022-10-18T05:58:52.648Z,102115.53
2022-10-18T05:59:54.233Z,102120.03
2022-10-18T06:01:01.010Z,102116.53
2022-10-18T06:02:02.793Z,102120.03
2022-10-18T06:03:05.577Z,102120.91
2022-10-18T06:04:07.978Z,102119.22
2022-10-18T06:05:10.795Z,102119.22
2022-10-18T06:06:13.587Z,102118.22
2022-10-18T06:07:17.266Z,102115.53
2022-10-18T06:08:19.076Z,102116.38
2022-10-18T06:09:22.301Z,102115.53
2022-10-18T06:10:23.908Z,102119.94
2022-10-18T06:11:27.943Z,102119.81
2022-10-18T06:12:29.690Z,102118.97
2022-10-18T06:13:33.707Z,102117.25
2022-10-18T06:14:36.036Z,102122.59
2022-10-18T06:15:38.522Z,102127.97
2022-10-18T06:16:40.067Z,102130.63
2022-10-18T06:17:42.543Z,102136.97
2022-10-18T06:18:47.680Z,102127.09
2022-10-18T06:19:50.144Z,102127.09
2022-10-18T06:20:56.730Z,102129.78
2022-10-18T06:21:59.373Z,102134.28
2022-10-18T06:23:00.907Z,102135.28
2022-10-18T06:24:03.430Z,102132.63
2022-10-18T06:25:06.877Z,102130.75
2022-10-18T06:26:12.189Z,102133.44
2022-10-18T06:27:15.068Z,102129.94
2022-10-18T06:28:18.112Z,102128.22
2022-10-18T06:29:19.625Z,102128.22
2022-10-18T06:30:22.297Z,102136.97
2022-10-18T06:31:23.812Z,102142.31
2022-10-18T06:32:26.370Z,102140.66
2022-10-18T06:33:27.903Z,102139.66
2022-10-18T06:34:30.712Z,102145.00
2022-10-18T06:35:32.293Z,102136.97
2022-10-18T06:36:34.963Z,102153.03
2022-10-18T06:37:38.044Z,102142.31
2022-10-18T06:38:40.832Z,102155.72
2022-10-18T06:39:42.411Z,102154.75
2022-10-18T06:40:44.890Z,102157.44
2022-10-18T06:41:47.420Z,102154.75
2022-10-18T06:43:00.040Z,102160.97
2022-10-18T06:44:13.691Z,102159.25
2022-10-18T06:45:15.908Z,102160.97
2022-10-18T06:46:18.412Z,102153.91
2022-10-18T06:47:19.975Z,102159.25
2022-10-18T06:48:23.064Z,102152.94
2022-10-18T06:49:25.631Z,102157.44
2022-10-18T06:50:27.226Z,102152.94
2022-10-18T06:51:29.727Z,102156.47
2022-10-18T06:52:31.614Z,102158.16
2022-10-18T06:53:43.701Z,102155.47
2022-10-18T06:54:50.330Z,102152.78
2022-10-18T06:55:53.090Z,102156.31
2022-10-18T06:56:57.441Z,102156.31
2022-10-18T06:58:00.410Z,102157.88
2022-10-18T06:59:03.222Z,102158.75
2022-10-18T07:00:06.305Z,102173.84
2022-10-18T07:01:13.370Z,102176.41
2022-10-18T07:02:17.346Z,102173.72
2022-10-18T07:03:18.896Z,102169.22
2022-10-18T07:04:21.411Z,102175.41
2022-10-18T07:05:23.139Z,102174.31
2022-10-18T07:06:26.013Z,102174.19
2022-10-18T07:07:31.331Z,102175.91
2022-10-18T07:08:34.166Z,102176.63
2022-10-18T07:09:35.741Z,102174.66
2022-10-18T07:10:38.824Z,102179.03
2022-10-18T07:11:40.389Z,102179.03
2022-10-18T07:12:43.399Z,102182.56
2022-10-18T07:13:46.250Z,102184.28
2022-10-18T07:14:48.753Z,102190.47
2022-10-18T07:16:00.177Z,102184.28
2022-10-18T07:17:02.692Z,102190.47
2022-10-18T07:18:05.816Z,102188.78
2022-10-18T07:19:08.445Z,102185.13
2022-10-18T07:20:10.551Z,102189.66
2022-10-18T07:21:14.446Z,102189.66
2022-10-18T07:22:16.922Z,102195.00
2022-10-18T07:23:20.901Z,102187.94
2022-10-18T07:24:23.508Z,102190.72
2022-10-18T07:25:28.396Z,102194.28
2022-10-18T07:26:34.979Z,102197.81
2022-10-18T07:27:37.419Z,102201.44
2022-10-18T07:28:39.986Z,102204.13
2022-10-18T07:29:42.880Z,102209.38
2022-10-18T07:30:45.348Z,102200.50
2022-10-18T07:31:47.990Z,102202.31
2022-10-18T07:32:51.098Z,102204.88
2022-10-18T07:33:53.866Z,102204.03
2022-10-18T07:34:55.383Z,102212.91
2022-10-18T07:36:01.872Z,102203.88
2022-10-18T07:37:04.430Z,102214.59
2022-10-18T07:38:05.981Z,102206.56
2022-10-18T07:39:08.578Z,102213.63
2022-10-18T07:40:11.766Z,102211.91
2022-10-18T07:41:15.412Z,102209.25
2022-10-18T07:42:16.987Z,102208.16
2022-10-18T07:43:19.518Z,102210.69
2022-10-18T07:44:22.272Z,102211.44
2022-10-18T07:45:25.245Z,102203.25
2022-10-18T07:46:28.184Z,102206.78
2022-10-18T07:47:31.344Z,102213.00
2022-10-18T07:48:36.794Z,102214.72
2022-10-18T07:49:38.347Z,102219.06
2022-10-18T07:50:40.843Z,102219.94
2022-10-18T07:51:42.939Z,102218.09
2022-10-18T07:52:45.973Z,102222.34
2022-10-18T07:53:48.083Z,102231.28
2022-10-18T07:55:59.090Z,102227.63
2022-10-18T07:57:01.647Z,102230.19
2022-10-18T07:58:03.400Z,102233.59
2022-10-18T07:59:05.954Z,102229.06
2022-10-18T08:00:09.029Z,102232.59
2022-10-18T08:01:19.984Z,102233.34
2022-10-18T08:02:21.521Z,102233.47
2022-10-18T08:03:24.045Z,102231.50
2022-10-18T08:04:25.639Z,102239.56
2022-10-18T08:05:29.434Z,102237.59
2022-10-18T08:06:32.297Z,102238.44
2022-10-18T08:07:34.163Z,102241.13
2022-10-18T08:08:38.418Z,102240.13
2022-10-18T08:09:41.006Z,102241.13
2022-10-18T08:10:42.549Z,102249.16
2022-10-18T08:11:45.466Z,102243.81
2022-10-18T08:12:47.100Z,102246.50
2022-10-18T08:13:50.313Z,102247.19
2022-10-18T08:14:51.857Z,102258.78
2022-10-18T08:16:00.589Z,102258.66
2022-10-18T08:17:04.595Z,102261.34
2022-10-18T08:18:06.203Z,102254.13
2022-10-18T08:19:09.132Z,102255.72
2022-10-18T08:20:26.173Z,102254.72
2022-10-18T08:21:32.864Z,102256.31
2022-10-18T08:22:34.463Z,102255.31
2022-10-18T08:23:37.711Z,102266.78
2022-10-18T08:24:39.213Z,102264.81
2022-10-18T08:25:41.685Z,102265.53
2022-10-18T08:26:44.208Z,102267.41
2022-10-18T08:27:45.779Z,102263.59
2022-10-18T08:28:54.328Z,102267.00
2022-10-18T08:30:12.381Z,102266.88
2022-10-18T08:31:17.208Z,102271.25
2022-10-18T08:32:21.051Z,102269.28
2022-10-18T08:33:22.594Z,102270.00
2022-10-18T08:34:25.331Z,102280.63
2022-10-18T08:35:26.963Z,102274.41
2022-10-18T08:36:29.471Z,102273.44
2022-10-18T08:37:31.339Z,102277.78
2022-10-18T08:38:34.910Z,102287.56
2022-10-18T08:39:36.787Z,102281.34
2022-10-18T08:40:44.496Z,102282.19
2022-10-18T08:42:09.475Z,102281.34
2022-10-18T08:43:23.417Z,102286.84
2022-10-18T08:44:27.433Z,102284.38
2022-10-18T08:45:41.931Z,102285.41
2022-10-18T08:46:47.747Z,102286.25
2022-10-18T08:47:53.568Z,102284.53
2022-10-18T08:48:57.845Z,102285.41
2022-10-18T08:50:02.062Z,102279.03
2022-10-18T08:51:07.667Z,102287.06
2022-10-18T08:52:16.138Z,102286.25
2022-10-18T08:53:24.747Z,102290.63
2022-10-18T08:54:32.068Z,102292.31
2022-10-18T08:55:40.327Z,102290.34
2022-10-18T08:56:47.622Z,102296.56
2022-10-18T08:57:50.728Z,102292.91
2022-10-18T08:58:52.249Z,102300.00
2022-10-18T08:59:54.897Z,102288.25
2022-10-18T09:01:09.634Z,102284.63
2022-10-18T09:02:20.520Z,102274.84
2022-10-18T09:03:42.234Z,102283.91
2022-10-18T09:04:53.245Z,102283.03
2022-10-18T09:06:01.336Z,102284.72
2022-10-18T09:07:23.399Z,102287.28
2022-10-18T09:08:37.375Z,102287.03
2022-10-18T09:09:46.372Z,102282.25
2022-10-18T09:11:02.216Z,102283.81
2022-10-18T09:12:21.358Z,102290.66
2022-10-18T09:13:54.859Z,102290.38
2022-10-18T09:15:15.911Z,102280.34
2022-10-18T09:16:21.863Z,102290.00
2022-10-18T09:17:35.444Z,102285.22
2022-10-18T09:18:57.264Z,102290.34
2022-10-18T09:20:10.976Z,102296.41
2022-10-18T09:21:20.902Z,102299.09
2022-10-18T09:22:34.780Z,102295.56
2022-10-18T09:23:45.194Z,102307.16
2022-10-18T09:24:54.158Z,102308.13
2022-10-18T09:26:06.991Z,102300.22
2022-10-18T09:27:14.371Z,102306.69
2022-10-18T09:28:25.657Z,102303.28
2022-10-18T09:29:45.582Z,102306.94
2022-10-18T09:30:59.524Z,102308.06
2022-10-18T09:32:15.184Z,102303.69
2022-10-18T09:33:31.645Z,102307.34
2022-10-18T09:34:43.446Z,102308.06
2022-10-18T09:35:52.259Z,102306.22
2022-10-18T09:36:55.653Z,102310.63
2022-10-18T09:38:04.623Z,102316.69
2022-10-18T09:39:13.156Z,102322.06
2022-10-18T09:40:19.508Z,102321.09
2022-10-18T09:41:26.597Z,102314.88
2022-10-18T09:42:35.029Z,102310.34
2022-10-18T09:43:50.161Z,102316.59
2022-10-18T09:44:56.640Z,102309.13
2022-10-18T09:45:58.487Z,102317.88
2022-10-18T09:47:03.714Z,102314.22
2022-10-18T09:48:12.251Z,102317.63
2022-10-18T09:49:20.055Z,102320.31
2022-10-18T09:50:28.597Z,102322.00
2022-10-18T09:51:36.037Z,102330.94
2022-10-18T09:52:45.352Z,102322.00
2022-10-18T09:53:59.658Z,102310.28
2022-10-18T09:55:06.579Z,102314.66
2022-10-18T09:56:12.655Z,102311.88
2022-10-18T09:57:20.407Z,102318.91
2022-10-18T09:58:26.617Z,102321.75
2022-10-18T09:59:35.328Z,102326.38
2022-10-18T10:00:45.494Z,102331.91
2022-10-18T10:01:49.191Z,102328.50
2022-10-18T10:02:51.750Z,102325.06
2022-10-18T10:03:54.502Z,102325.94
2022-10-18T10:04:56.310Z,102329.59
2022-10-18T10:06:17.299Z,102330.44
2022-10-18T10:07:24.652Z,102329.59
2022-10-18T10:08:33.492Z,102327.06
2022-10-18T10:09:41.046Z,102330.72
2022-10-18T10:10:48.363Z,102325.50
2022-10-18T10:11:51.557Z,102330.84
2022-10-18T10:13:05.577Z,102338.06
2022-10-18T10:15:21.279Z,102332.94
2022-10-18T10:16:24.569Z,102337.47
2022-10-18T10:17:31.995Z,102335.75
2022-10-18T10:18:36.434Z,102337.72
2022-10-18T10:19:59.727Z,102345.03
2022-10-18T10:21:07.236Z,102346.75
2022-10-18T10:22:13.228Z,102338.69
2022-10-18T10:23:21.107Z,102347.44
2022-10-18T10:24:31.237Z,102346.47
2022-10-18T10:25:35.820Z,102341.00
2022-10-18T10:26:38.863Z,102343.69
2022-10-18T10:27:45.793Z,102339.13
2022-10-18T10:28:48.778Z,102342.81
2022-10-18T10:29:56.982Z,102350.88
2022-10-18T10:31:18.954Z,102340.25
2022-10-18T10:32:22.860Z,102346.47
2022-10-18T10:33:35.313Z,102351.00
2022-10-18T10:34:39.808Z,102346.47
2022-10-18T10:36:00.158Z,102356.25
2022-10-18T10:37:04.773Z,102355.50
2022-10-18T10:38:08.180Z,102350.13
2022-10-18T10:39:13.096Z,102353.69
2022-10-18T10:40:21.856Z,102355.50
2022-10-18T10:41:27.536Z,102355.25
2022-10-18T10:42:38.099Z,102347.19
2022-10-18T10:43:40.959Z,102343.53
2022-10-18T10:44:54.964Z,102352.44
2022-10-18T10:46:02.258Z,102351.59
2022-10-18T10:47:05.564Z,102343.53
2022-10-18T10:48:14.211Z,102353.31
2022-10-18T10:49:39.555Z,102346.97
2022-10-18T10:50:55.793Z,102349.50
2022-10-18T10:52:09.128Z,102349.38
2022-10-18T10:53:38.977Z,102342.03
2022-10-18T10:54:51.279Z,102338.13
2022-10-18T10:55:54.795Z,102337.84
2022-10-18T10:57:01.882Z,102338.47
2022-10-18T10:58:03.487Z,102347.22
2022-10-18T10:59:15.305Z,102345.28
2022-10-18T11:00:36.810Z,102348.78
2022-10-18T11:01:39.321Z,102350.50
2022-10-18T11:02:41.283Z,102350.38
2022-10-18T11:03:47.829Z,102346.84
2022-10-18T11:04:52.448Z,102344.16
2022-10-18T11:05:55.304Z,102345.97
2022-10-18T11:07:05.290Z,102341.47
2022-10-18T11:08:10.856Z,102352.94
2022-10-18T11:09:25.869Z,102351.13
2022-10-18T11:10:32.640Z,102348.44
2022-10-18T11:11:39.161Z,102347.56
2022-10-18T11:12:46.672Z,102347.56
2022-10-18T11:13:57.023Z,102346.59
2022-10-18T11:15:21.546Z,102347.56
2022-10-18T11:16:31.810Z,102342.31
2022-10-18T11:17:40.836Z,102348.44
2022-10-18T11:18:46.204Z,102352.84
2022-10-18T11:20:03.600Z,102348.16
2022-10-18T11:21:11.368Z,102342.81
2022-10-18T11:22:18.927Z,102340.00
2022-10-18T11:23:24.333Z,102340.81
2022-10-18T11:24:27.291Z,102342.53
2022-10-18T11:25:46.752Z,102339.72
2022-10-18T11:26:59.317Z,102343.28
2022-10-18T11:28:09.464Z,102337.91
2022-10-18T11:29:31.828Z,102344.09
2022-10-18T11:30:58.761Z,102346.78
2022-10-18T11:32:10.837Z,102337.75
2022-10-18T11:33:29.605Z,102339.19
2022-10-18T11:34:48.888Z,102328.91
2022-10-18T11:35:56.707Z,102328.34
2022-10-18T11:37:27.193Z,102327.69
2022-10-18T11:38:35.398Z,102343.28
2022-10-18T11:39:50.829Z,102336.53
2022-10-18T11:41:06.317Z,102340.91
2022-10-18T11:42:16.761Z,102340.22
2022-10-18T11:43:30.210Z,102342.44
2022-10-18T11:44:42.419Z,102345.53
2022-10-18T11:45:52.416Z,102338.72
2022-10-18T11:47:05.492Z,102345.34
2022-10-18T11:48:21.946Z,102347.44
2022-10-18T11:49:43.804Z,102347.09
2022-10-18T11:50:52.778Z,102344.84
2022-10-18T11:52:08.481Z,102338.88
2022-10-18T11:53:22.307Z,102336.56
2022-10-18T11:54:42.234Z,102335.94
2022-10-18T11:55:57.733Z,102335.34
2022-10-18T11:57:17.428Z,102342.72
2022-10-18T11:58:35.380Z,102342.25
2022-10-18T11:59:44.311Z,102342.50
2022-10-18T12:00:51.583Z,102333.00
2022-10-18T12:02:03.697Z,102342.03
2022-10-18T12:03:21.091Z,102336.94
2022-10-18T12:04:26.009Z,102337.19
2022-10-18T12:05:30.356Z,102342.56
2022-10-18T12:06:37.358Z,102340.84
2022-10-18T12:07:43.825Z,102336.34
2022-10-18T12:08:49.842Z,102339.13
2022-10-18T12:09:54.927Z,102333.78
2022-10-18T12:11:06.037Z,102333.78
2022-10-18T12:12:13.583Z,102326.56
2022-10-18T12:13:35.917Z,102328.28
2022-10-18T12:14:43.773Z,102328.88
2022-10-18T12:15:46.936Z,102329.47
2022-10-18T12:16:53.615Z,102336.88
2022-10-18T12:18:05.188Z,102330.13
2022-10-18T12:19:14.451Z,102327.81
2022-10-18T12:20:23.775Z,102333.34
2022-10-18T12:21:30.194Z,102316.59
2022-10-18T12:22:36.388Z,102333.03
2022-10-18T12:23:45.979Z,102330.06
2022-10-18T12:24:48.540Z,102328.69
2022-10-18T12:25:53.945Z,102325.47
2022-10-18T12:27:02.085Z,102318.44
2022-10-18T12:28:17.664Z,102317.78
2022-10-18T12:29:27.203Z,102321.59
2022-10-18T12:30:34.289Z,102319.38
2022-10-18T12:31:43.452Z,102313.59
2022-10-18T12:33:03.337Z,102316.72
2022-10-18T12:34:26.936Z,102318.41
2022-10-18T12:35:33.073Z,102319.28
2022-10-18T12:36:48.735Z,102310.34
2022-10-18T12:38:02.401Z,102306.81
2022-10-18T12:39:11.690Z,102310.63